Time;durP1;ratioP1;P1;durP2;ratioP2;P2;SDS_P1;SDS_P2;PMS_P1;PMS_P2;Temp;Humidity;BMP_temperature;BMP_pressure;BME280_temperature;BME280_humidity;BME280_pressure;Samples;Min_cycle;Max_cycle;Signal;HPM_P1;HPM_P2
2022/01/07 00:00:02;;;;;;;;;;;1.70;99.90;;;;;;5037801;28;19929;-83
2022/01/07 00:02:39;;;;;;;;;;;1.70;99.90;;;;;;5045456;28;19925;-83
2022/01/07 00:05:07;;;;;;;;;;;1.70;99.90;;;;;;5039241;28;19925;-83
2022/01/07 00:07:34;;;;;;;;;;;1.70;99.90;;;;;;5034631;28;20387;-84
2022/01/07 00:10:04;;;;;;;;;;;1.70;99.90;;;;;;5026778;28;20023;-83
2022/01/07 00:12:31;;;;;;;;;;;1.70;99.90;;;;;;5063020;28;19948;-83
2022/01/07 00:14:58;;;;;;;;;;;1.70;99.90;;;;;;5061930;28;19953;-83
2022/01/07 00:17:26;;;;;;;;;;;1.70;99.90;;;;;;5047730;28;20015;-83
2022/01/07 00:19:53;;;;;;;;;;;1.70;99.90;;;;;;5044503;28;20542;-84
2022/01/07 00:22:20;;;;;;;;;;;1.70;99.90;;;;;;5045130;28;19925;-83
2022/01/07 00:25:30;;;;;;;;;;;1.70;99.90;;;;;;5047101;28;19933;-83
2022/01/07 00:27:59;;;;;;;;;;;1.70;99.90;;;;;;5059219;28;19925;-82
2022/01/07 00:30:27;;;;;;;;;;;1.70;99.90;;;;;;5041288;28;19972;-83
2022/01/07 00:32:54;;;;;;;;;;;1.70;99.90;;;;;;5029890;28;19933;-83
2022/01/07 00:35:22;;;;;;;;;;;1.70;99.90;;;;;;5028784;28;19948;-85
2022/01/07 00:37:51;;;;;;;;;;;1.70;99.90;;;;;;5048019;28;19925;-83
2022/01/07 00:40:19;;;;;;;;;;;1.70;99.90;;;;;;5045162;28;20477;-83
2022/01/07 00:46:17;;;;;;;;;;;1.70;99.90;;;;;;5058211;28;19924;-84
2022/01/07 00:48:47;;;;;;;;;;;1.60;99.90;;;;;;5036129;28;19976;-83
2022/01/07 00:51:15;;;;;;;;;;;1.60;99.90;;;;;;5041283;28;19925;-83
2022/01/07 00:57:11;;;;;;;;;;;1.60;99.90;;;;;;5053754;28;19940;-83
2022/01/07 00:59:39;;;;;;;;;;;1.60;99.90;;;;;;5052260;28;19925;-82
2022/01/07 01:02:08;;;;;;;;;;;1.60;99.90;;;;;;5041809;28;19959;-83
2022/01/07 01:04:35;;;;;;;;;;;1.60;99.90;;;;;;5036039;28;20003;-83
2022/01/07 01:07:02;;;;;;;;;;;1.60;99.90;;;;;;5048057;28;20387;-83
2022/01/07 01:09:30;;;;;;;;;;;1.60;99.90;;;;;;5052292;28;19925;-84
2022/01/07 01:11:57;;;;;;;;;;;1.60;99.90;;;;;;5046469;28;19933;-83
2022/01/07 01:14:24;;;;;;;;;;;1.60;99.90;;;;;;5031870;28;19965;-84
2022/01/07 01:16:53;;;;;;;;;;;1.60;99.90;;;;;;5048891;28;19929;-83
2022/01/07 01:19:22;;;;;;;;;;;1.60;99.90;;;;;;5031901;28;19925;-82
2022/01/07 01:21:52;;;;;;;;;;;1.60;99.90;;;;;;5042464;28;19925;-85
2022/01/07 01:24:20;;;;;;;;;;;1.60;99.90;;;;;;5070209;28;19929;-83
2022/01/07 01:30:18;;;;;;;;;;;1.60;99.90;;;;;;5061286;28;19972;-82
2022/01/07 01:33:04;;;;;;;;;;;1.60;99.90;;;;;;5041341;28;19932;-83
2022/01/07 01:35:37;;;;;;;;;;;1.60;99.90;;;;;;5048716;28;19925;-82
2022/01/07 01:38:04;;;;;;;;;;;1.60;99.90;;;;;;5049792;28;19929;-83
2022/01/07 01:40:32;;;;;;;;;;;1.60;99.90;;;;;;5047386;28;19925;-83
2022/01/07 01:43:00;;;;;;;;;;;1.60;99.90;;;;;;5050816;28;19925;-83
2022/01/07 01:45:28;;;;;;;;;;;1.60;99.90;;;;;;5044340;28;19925;-83
2022/01/07 01:47:55;;;;;;;;;;;1.60;99.90;;;;;;5033454;28;19925;-83
2022/01/07 01:50:24;;;;;;;;;;;1.60;99.90;;;;;;5051584;28;19947;-83
2022/01/07 01:52:54;;;;;;;;;;;1.60;99.90;;;;;;5050054;28;19925;-83
2022/01/07 01:55:23;;;;;;;;;;;1.60;99.90;;;;;;5042758;28;20354;-83
2022/01/07 01:57:52;;;;;;;;;;;1.60;99.90;;;;;;5029178;28;19963;-83
2022/01/07 02:00:20;;;;;;;;;;;1.60;99.90;;;;;;5041999;28;19929;-83
2022/01/07 02:06:16;;;;;;;;;;;1.60;99.90;;;;;;5049556;28;19931;-83
2022/01/07 02:08:51;;;;;;;;;;;1.60;99.90;;;;;;5035528;28;19992;-83
2022/01/07 02:11:23;;;;;;;;;;;1.60;99.90;;;;;;5049066;28;20302;-83
2022/01/07 02:13:55;;;;;;;;;;;1.50;99.90;;;;;;5063487;28;19965;-83
2022/01/07 02:16:24;;;;;;;;;;;1.60;99.90;;;;;;5047094;28;19948;-83
2022/01/07 02:18:52;;;;;;;;;;;1.60;99.90;;;;;;5063043;28;19948;-84
2022/01/07 02:21:21;;;;;;;;;;;1.50;99.90;;;;;;5047732;28;19933;-83
2022/01/07 02:23:48;;;;;;;;;;;1.50;99.90;;;;;;5049165;28;19925;-83
2022/01/07 02:26:15;;;;;;;;;;;1.50;99.90;;;;;;5035236;28;19953;-83
2022/01/07 02:28:43;;;;;;;;;;;1.60;99.90;;;;;;5047479;28;19925;-83
2022/01/07 02:34:42;;;;;;;;;;;1.50;99.90;;;;;;5048281;28;19924;-83
2022/01/07 02:37:13;;;;;;;;;;;1.50;99.90;;;;;;5044888;28;19925;-82
2022/01/07 02:39:49;;;;;;;;;;;1.50;99.90;;;;;;5048709;28;20028;-82
2022/01/07 02:42:17;;;;;;;;;;;1.50;99.90;;;;;;5030268;28;19925;-84
2022/01/07 02:48:13;;;;;;;;;;;1.50;99.90;;;;;;5045572;28;19985;-83
2022/01/07 02:50:41;;;;;;;;;;;1.50;99.90;;;;;;5047083;28;19925;-83
2022/01/07 02:56:39;;;;;;;;;;;1.50;99.90;;;;;;5048692;28;20360;-82
2022/01/07 03:02:33;;;;;;;;;;;1.50;99.90;;;;;;5040921;28;19930;-83
2022/01/07 03:05:02;;;;;;;;;;;1.50;99.90;;;;;;5039071;28;19924;-84
2022/01/07 03:07:30;;;;;;;;;;;1.50;99.90;;;;;;5039068;28;19975;-82
2022/01/07 03:09:59;;;;;;;;;;;1.50;99.90;;;;;;5044074;28;20388;-83
2022/01/07 03:16:01;;;;;;;;;;;1.50;99.90;;;;;;5034423;28;19948;-83
2022/01/07 03:21:41;;;;;;;;;;;1.50;99.90;;;;;;5044396;28;20039;-83
2022/01/07 03:24:08;;;;;;;;;;;1.50;99.90;;;;;;5048610;28;19925;-83
2022/01/07 03:26:35;;;;;;;;;;;1.50;99.90;;;;;;5045606;28;20018;-83
2022/01/07 03:29:05;;;;;;;;;;;1.40;99.90;;;;;;5035010;28;19948;-83
2022/01/07 03:31:34;;;;;;;;;;;1.50;99.90;;;;;;5037703;28;19925;-83
2022/01/07 03:34:09;;;;;;;;;;;1.50;99.90;;;;;;5039582;28;19932;-83
2022/01/07 03:36:37;;;;;;;;;;;1.40;99.90;;;;;;5061367;28;19925;-83
2022/01/07 03:39:05;;;;;;;;;;;1.50;99.90;;;;;;5042499;28;20191;-83
2022/01/07 03:41:34;;;;;;;;;;;1.40;99.90;;;;;;5036399;28;20242;-82
2022/01/07 03:44:02;;;;;;;;;;;1.50;99.90;;;;;;5047536;28;20163;-82
2022/01/07 03:46:33;;;;;;;;;;;1.50;99.90;;;;;;5029878;28;19925;-84
2022/01/07 03:49:02;;;;;;;;;;;1.40;99.90;;;;;;5041451;28;19948;-83
2022/01/07 03:55:03;;;;;;;;;;;1.40;99.90;;;;;;5044673;28;19936;-83
2022/01/07 03:57:42;;;;;;;;;;;1.40;99.90;;;;;;5047041;28;19944;-83
2022/01/07 04:00:11;;;;;;;;;;;1.50;99.90;;;;;;5047473;28;19932;-82
2022/01/07 04:02:57;;;;;;;;;;;1.50;99.90;;;;;;5043539;28;19963;-83
2022/01/07 04:05:26;;;;;;;;;;;1.40;99.90;;;;;;5043517;28;20222;-83
2022/01/07 04:07:53;;;;;;;;;;;1.50;99.90;;;;;;5037536;28;19925;-83
2022/01/07 04:10:21;;;;;;;;;;;1.50;99.90;;;;;;5045011;28;19933;-83
2022/01/07 04:12:48;;;;;;;;;;;1.40;99.90;;;;;;5043327;28;19929;-83
2022/01/07 04:15:16;;;;;;;;;;;1.40;99.90;;;;;;5038274;28;19929;-83
2022/01/07 04:17:44;;;;;;;;;;;1.40;99.90;;;;;;5037646;28;20442;-83
2022/01/07 04:20:18;;;;;;;;;;;1.40;99.90;;;;;;5047027;28;19933;-83
2022/01/07 04:36:48;;;;;;;;;;;1.40;99.90;;;;;;5043838;28;19924;-83
2022/01/07 04:39:16;;;;;;;;;;;1.40;99.90;;;;;;5046255;28;19947;-83
2022/01/07 04:41:44;;;;;;;;;;;1.40;99.90;;;;;;5028570;28;19926;-83
2022/01/07 04:44:16;;;;;;;;;;;1.30;99.90;;;;;;5045518;28;19964;-82
2022/01/07 04:46:43;;;;;;;;;;;1.40;99.90;;;;;;5045874;28;19979;-83
2022/01/07 05:02:36;;;;;;;;;;;1.40;99.90;;;;;;6076193;22;3331567;-82
2022/01/07 05:05:04;;;;;;;;;;;1.30;99.90;;;;;;6152911;23;19932;-85
2022/01/07 05:07:33;;;;;;;;;;;1.30;99.90;;;;;;6152759;23;19926;-83
2022/01/07 05:10:01;;;;;;;;;;;1.30;99.90;;;;;;6151098;23;19920;-83
2022/01/07 05:15:52;;;;;;;;;;;1.30;99.90;;;;;;6147298;23;19924;-82
2022/01/07 05:22:05;;;;;;;;;;;1.30;99.90;;;;;;6001817;23;19929;-83
2022/01/07 05:30:26;;;;;;;;;;;1.30;99.90;;;;;;6030242;23;19923;-83
2022/01/07 05:36:33;;;;;;;;;;;1.30;99.90;;;;;;6110052;23;19951;-82
2022/01/07 05:39:03;;;;;;;;;;;1.30;99.90;;;;;;6094303;23;19921;-83
2022/01/07 05:41:31;;;;;;;;;;;1.30;99.90;;;;;;6096298;23;19965;-83
2022/01/07 05:50:36;;;;;;;;;;;1.30;99.90;;;;;;6037828;23;20006;-82
2022/01/07 06:13:55;;;;;;;;;;;1.20;99.90;;;;;;6115845;23;19955;-83
2022/01/07 06:27:30;;;;;;;;;;;1.20;99.90;;;;;;6066443;23;19960;-83
2022/01/07 06:33:40;;;;;;;;;;;1.20;99.90;;;;;;6118841;23;19915;-83
2022/01/07 06:36:18;;;;;;;;;;;1.20;99.90;;;;;;6117982;23;19969;-83
2022/01/07 06:42:40;;;;;;;;;;;1.20;99.90;;;;;;6118255;23;19916;-82
2022/01/07 06:56:08;;;;;;;;;;;1.20;99.90;;;;;;6055799;23;19932;-82
2022/01/07 07:12:00;;;;;;;;;;;1.20;99.90;;;;;;6121550;23;19929;-82
2022/01/07 07:21:22;;;;;;;;;;;1.20;99.90;;;;;;6145270;23;20273;-82
2022/01/07 07:27:28;;;;;;;;;;;1.20;99.90;;;;;;6148067;23;19928;-82
2022/01/07 07:30:19;;;;;;;;;;;1.20;99.90;;;;;;6146340;23;19940;-82
2022/01/07 08:00:07;;;;;;;;;;;1.10;99.90;;;;;;6057319;23;19917;-82
2022/01/07 08:20:05;;;;;;;;;;;1.20;99.90;;;;;;5988758;23;19917;-82
2022/01/07 08:28:45;;;;;;;;;;;1.20;99.90;;;;;;6135909;23;19959;-83
2022/01/07 08:37:58;;;;;;;;;;;1.10;99.90;;;;;;6145569;23;19924;-83
2022/01/07 08:40:26;;;;;;;;;;;1.20;99.90;;;;;;6144985;23;19921;-83
2022/01/07 08:42:59;;;;;;;;;;;1.20;99.90;;;;;;6144346;23;19925;-83
2022/01/07 08:45:31;;;;;;;;;;;1.20;99.90;;;;;;6144116;23;19920;-83
2022/01/07 08:48:01;;;;;;;;;;;1.10;99.90;;;;;;6145017;23;19925;-83
2022/01/07 08:50:28;;;;;;;;;;;1.10;99.90;;;;;;6145757;23;20346;-83
2022/01/07 08:53:01;;;;;;;;;;;1.20;99.90;;;;;;6144631;23;19921;-83
2022/01/07 08:58:51;;;;;;;;;;;1.10;99.90;;;;;;6141686;23;20025;-83
2022/01/07 09:01:20;;;;;;;;;;;1.20;99.90;;;;;;6145771;23;19921;-83
2022/01/07 09:03:48;;;;;;;;;;;1.10;99.90;;;;;;6143110;23;19928;-83
2022/01/07 09:06:17;;;;;;;;;;;1.10;99.90;;;;;;6145641;23;19921;-84
2022/01/07 09:18:18;;;;;;;;;;;1.20;99.90;;;;;;6193558;23;19943;-82
2022/01/07 09:38:16;;;;;;;;;;;1.20;99.90;;;;;;6179670;23;19914;-81
2022/01/07 09:43:57;;;;;;;;;;;1.20;99.90;;;;;;6177524;23;19965;-82
2022/01/07 10:07:34;;;;;;;;;;;1.20;99.90;;;;;;6142671;23;19952;-83
2022/01/07 10:13:32;;;;;;;;;;;1.20;99.90;;;;;;6178292;23;19928;-83
2022/01/07 10:16:16;;;;;;;;;;;1.20;99.90;;;;;;6178871;23;19935;-84
2022/01/07 10:22:05;;;;;;;;;;;1.20;99.90;;;;;;6159164;23;19927;-83
2022/01/07 10:24:33;;;;;;;;;;;1.20;99.90;;;;;;6174680;23;19931;-83
2022/01/07 10:30:40;;;;;;;;;;;1.20;99.90;;;;;;6177405;23;19916;-84
2022/01/07 10:36:40;;;;;;;;;;;1.30;99.90;;;;;;6176954;23;19916;-83
2022/01/07 10:45:35;;;;;;;;;;;1.30;99.90;;;;;;6175938;23;19940;-85
2022/01/07 10:48:03;;;;;;;;;;;1.30;99.90;;;;;;6176911;23;19921;-83
2022/01/07 10:50:31;;;;;;;;;;;1.30;99.90;;;;;;6176295;23;19924;-84
2022/01/07 10:59:22;;;;;;;;;;;1.30;99.90;;;;;;6179621;23;19923;-83
2022/01/07 11:01:56;;;;;;;;;;;1.30;99.90;;;;;;6176831;23;20201;-83
2022/01/07 11:04:26;;;;;;;;;;;1.30;99.90;;;;;;6175601;23;19952;-83
2022/01/07 11:07:09;;;;;;;;;;;1.30;99.90;;;;;;6177045;23;19927;-83
2022/01/07 11:09:37;;;;;;;;;;;1.30;99.90;;;;;;6176977;23;20269;-84
2022/01/07 11:18:05;;;;;;;;;;;1.40;99.90;;;;;;6176235;23;19944;-84
2022/01/07 11:21:19;;;;;;;;;;;1.40;99.90;;;;;;6206113;23;19921;-84
2022/01/07 11:27:51;;;;;;;;;;;1.40;99.90;;;;;;6177291;23;19915;-83
2022/01/07 11:34:14;;;;;;;;;;;1.40;99.90;;;;;;6176138;23;19975;-85
2022/01/07 11:36:49;;;;;;;;;;;1.40;99.90;;;;;;6175319;23;19920;-83
2022/01/07 11:39:43;;;;;;;;;;;1.40;99.90;;;;;;6176109;23;19947;-83
2022/01/07 11:52:17;;;;;;;;;;;1.40;99.90;;;;;;6173884;23;20320;-82
2022/01/07 11:55:07;;;;;;;;;;;1.40;99.90;;;;;;6174547;23;20372;-82
2022/01/07 11:57:51;;;;;;;;;;;1.40;99.90;;;;;;6173933;23;19924;-83
2022/01/07 12:00:53;;;;;;;;;;;1.40;99.90;;;;;;6177665;23;19921;-82
2022/01/07 12:10:22;;;;;;;;;;;1.40;99.90;;;;;;6177043;23;19918;-82
2022/01/07 12:12:51;;;;;;;;;;;1.40;99.90;;;;;;6175106;23;19936;-84
2022/01/07 12:15:20;;;;;;;;;;;1.40;99.90;;;;;;6175960;23;19927;-83
2022/01/07 12:17:47;;;;;;;;;;;1.40;99.90;;;;;;6175194;23;19927;-83
2022/01/07 12:20:29;;;;;;;;;;;1.50;99.90;;;;;;6175556;23;19908;-83
2022/01/07 12:22:57;;;;;;;;;;;1.50;99.90;;;;;;6170666;23;19943;-82
2022/01/07 12:25:26;;;;;;;;;;;1.50;99.90;;;;;;6177613;23;19920;-83
2022/01/07 12:31:29;;;;;;;;;;;1.50;99.90;;;;;;6177387;23;19974;-85
2022/01/07 12:33:58;;;;;;;;;;;1.50;99.90;;;;;;6177118;23;19925;-83
2022/01/07 12:36:27;;;;;;;;;;;1.50;99.90;;;;;;6176034;23;20192;-83
2022/01/07 12:38:58;;;;;;;;;;;1.50;99.90;;;;;;6175606;23;19932;-84
2022/01/07 12:41:28;;;;;;;;;;;1.50;99.90;;;;;;6175104;23;19924;-82
2022/01/07 12:44:07;;;;;;;;;;;1.50;99.90;;;;;;6176511;23;19928;-83
2022/01/07 12:46:35;;;;;;;;;;;1.50;99.90;;;;;;6179505;23;20049;-85
2022/01/07 12:49:02;;;;;;;;;;;1.50;99.90;;;;;;6178418;23;19954;-83
2022/01/07 12:51:30;;;;;;;;;;;1.50;99.90;;;;;;6178991;23;19928;-84
2022/01/07 12:53:58;;;;;;;;;;;1.50;99.90;;;;;;6178422;23;19916;-84
2022/01/07 12:56:28;;;;;;;;;;;1.50;99.90;;;;;;6179785;23;19927;-83
2022/01/07 12:58:57;;;;;;;;;;;1.50;99.90;;;;;;6178685;23;19921;-82
2022/01/07 13:01:25;;;;;;;;;;;1.50;99.90;;;;;;6176438;23;19920;-86
2022/01/07 13:04:04;;;;;;;;;;;1.60;99.90;;;;;;6176832;23;20008;-84
2022/01/07 13:10:03;;;;;;;;;;;1.50;99.90;;;;;;6179333;23;19924;-84
2022/01/07 13:12:32;;;;;;;;;;;1.50;99.90;;;;;;6180336;23;19925;-86
2022/01/07 13:14:59;;;;;;;;;;;1.50;99.90;;;;;;6181857;23;19931;-83
2022/01/07 13:17:29;;;;;;;;;;;1.50;99.90;;;;;;6179436;23;19920;-84
2022/01/07 13:19:57;;;;;;;;;;;1.50;99.90;;;;;;6179009;23;19908;-85
2022/01/07 13:22:26;;;;;;;;;;;1.50;99.90;;;;;;6177791;23;19920;-83
2022/01/07 13:24:53;;;;;;;;;;;1.50;99.90;;;;;;6179356;23;19921;-85
2022/01/07 13:30:35;;;;;;;;;;;1.50;99.90;;;;;;6180309;23;19919;-82
2022/01/07 13:33:38;;;;;;;;;;;1.50;99.90;;;;;;6175718;23;20439;-84
2022/01/07 13:36:09;;;;;;;;;;;1.50;99.90;;;;;;6175829;23;19921;-82
2022/01/07 13:38:41;;;;;;;;;;;1.60;99.90;;;;;;6174607;23;19925;-82
2022/01/07 13:41:10;;;;;;;;;;;1.60;99.90;;;;;;6174385;23;19924;-82
2022/01/07 13:43:39;;;;;;;;;;;1.60;99.90;;;;;;6174600;23;19920;-82
2022/01/07 13:46:17;;;;;;;;;;;1.60;99.90;;;;;;6169248;23;19925;-83
2022/01/07 13:52:25;;;;;;;;;;;1.60;99.90;;;;;;6168307;23;19927;-84
2022/01/07 13:54:53;;;;;;;;;;;1.60;99.90;;;;;;6168650;23;19921;-85
2022/01/07 13:57:20;;;;;;;;;;;1.60;99.90;;;;;;6170288;23;20003;-85
2022/01/07 13:59:49;;;;;;;;;;;1.60;99.90;;;;;;6167206;23;19920;-82
2022/01/07 14:02:20;;;;;;;;;;;1.60;99.90;;;;;;6162368;23;19959;-82
2022/01/07 14:04:48;;;;;;;;;;;1.60;99.90;;;;;;6168384;23;19920;-83
2022/01/07 14:07:29;;;;;;;;;;;1.60;99.90;;;;;;6172496;23;19968;-87
2022/01/07 14:13:29;;;;;;;;;;;1.60;99.90;;;;;;6174817;23;19927;-84
2022/01/07 14:15:59;;;;;;;;;;;1.60;99.90;;;;;;6163834;23;19928;-84
2022/01/07 14:18:29;;;;;;;;;;;1.60;99.90;;;;;;6165993;23;19920;-82
2022/01/07 14:20:57;;;;;;;;;;;1.60;99.90;;;;;;6170009;23;19920;-84
2022/01/07 14:23:26;;;;;;;;;;;1.60;99.90;;;;;;6172240;23;19925;-87
2022/01/07 14:26:01;;;;;;;;;;;1.60;99.90;;;;;;6170923;23;19929;-82
2022/01/07 14:28:29;;;;;;;;;;;1.60;99.90;;;;;;6169194;23;19925;-83
2022/01/07 14:31:05;;;;;;;;;;;1.70;99.90;;;;;;6172215;23;19975;-83
2022/01/07 14:33:34;;;;;;;;;;;1.70;99.90;;;;;;6171416;23;19944;-81
2022/01/07 14:36:02;;;;;;;;;;;1.70;99.90;;;;;;6171052;23;19932;-82
2022/01/07 14:38:29;;;;;;;;;;;1.60;99.90;;;;;;6147186;23;19979;-76
2022/01/07 14:40:56;;;;;;;;;;;1.60;99.90;;;;;;6149122;23;19921;-77
2022/01/07 14:43:23;;;;;;;;;;;1.70;99.90;;;;;;6140298;23;19928;-77
2022/01/07 14:45:50;;;;;;;;;;;1.70;99.90;;;;;;6117667;23;19920;-76
2022/01/07 14:48:17;;;;;;;;;;;1.60;99.90;;;;;;6115608;23;19925;-76
2022/01/07 14:50:46;;;;;;;;;;;1.60;99.90;;;;;;6113724;23;19924;-76
2022/01/07 14:53:13;;;;;;;;;;;1.70;99.90;;;;;;6117181;23;19920;-77
2022/01/07 14:55:40;;;;;;;;;;;1.70;99.90;;;;;;6117605;23;19925;-76
2022/01/07 14:58:08;;;;;;;;;;;1.60;99.90;;;;;;6116133;23;19927;-76
2022/01/07 15:00:35;;;;;;;;;;;1.70;99.90;;;;;;6115232;23;20487;-76
2022/01/07 15:03:02;;;;;;;;;;;1.70;99.90;;;;;;6115534;23;19925;-77
2022/01/07 15:05:29;;;;;;;;;;;1.70;99.90;;;;;;6116443;23;19929;-76
2022/01/07 15:07:58;;;;;;;;;;;1.60;99.90;;;;;;6118511;23;19970;-77
2022/01/07 15:10:24;;;;;;;;;;;1.70;99.90;;;;;;6117620;23;19921;-77
2022/01/07 15:12:51;;;;;;;;;;;1.70;99.90;;;;;;6116818;23;19927;-77
2022/01/07 15:18:03;;;;;;;;;;;1.70;99.90;;;;;;6120206;23;20302;-77
2022/01/07 15:20:30;;;;;;;;;;;1.70;99.90;;;;;;6118160;23;19924;-77
2022/01/07 15:23:00;;;;;;;;;;;1.60;99.90;;;;;;6115234;23;19928;-77
2022/01/07 15:25:27;;;;;;;;;;;1.60;99.90;;;;;;6118919;23;19921;-76
2022/01/07 15:27:53;;;;;;;;;;;1.70;99.90;;;;;;6116924;23;20015;-76
2022/01/07 15:30:20;;;;;;;;;;;1.70;99.90;;;;;;6119691;23;19960;-77
2022/01/07 15:32:47;;;;;;;;;;;1.60;99.90;;;;;;6119207;23;19968;-77
2022/01/07 15:35:18;;;;;;;;;;;1.70;99.90;;;;;;6117737;23;19927;-77
2022/01/07 15:37:46;;;;;;;;;;;1.70;99.90;;;;;;6119010;23;19948;-77
2022/01/07 15:40:15;;;;;;;;;;;1.60;99.90;;;;;;6121484;23;20296;-77
2022/01/07 15:42:43;;;;;;;;;;;1.70;99.90;;;;;;6120760;23;19921;-76
2022/01/07 15:45:11;;;;;;;;;;;1.60;99.90;;;;;;6149635;23;19929;-77
2022/01/07 15:47:38;;;;;;;;;;;1.70;99.90;;;;;;6123690;23;19948;-77
2022/01/07 15:50:06;;;;;;;;;;;1.70;99.90;;;;;;6122259;23;19959;-77
2022/01/07 15:52:34;;;;;;;;;;;1.70;99.90;;;;;;6148202;23;19921;-77
2022/01/07 15:55:01;;;;;;;;;;;1.60;99.90;;;;;;6149483;23;20341;-77
2022/01/07 15:57:30;;;;;;;;;;;1.60;99.90;;;;;;6146382;23;19932;-77
2022/01/07 15:59:59;;;;;;;;;;;1.60;99.90;;;;;;6123673;23;19965;-77
2022/01/07 16:02:26;;;;;;;;;;;1.60;99.90;;;;;;6123024;23;19927;-77
2022/01/07 16:04:53;;;;;;;;;;;1.70;99.90;;;;;;6149924;23;19935;-77
2022/01/07 16:07:20;;;;;;;;;;;1.60;99.90;;;;;;6123189;23;19979;-76
2022/01/07 16:09:48;;;;;;;;;;;1.60;99.90;;;;;;6121988;23;19925;-77
2022/01/07 16:12:15;;;;;;;;;;;1.60;99.90;;;;;;6122073;23;19925;-77
2022/01/07 16:14:44;;;;;;;;;;;1.60;99.90;;;;;;6148868;23;19927;-77
2022/01/07 16:17:11;;;;;;;;;;;1.60;99.90;;;;;;6122545;23;19925;-77
2022/01/07 16:19:38;;;;;;;;;;;1.60;99.90;;;;;;6124805;23;19980;-77
2022/01/07 16:22:08;;;;;;;;;;;1.60;99.90;;;;;;6123369;23;20004;-77
2022/01/07 16:24:35;;;;;;;;;;;1.60;99.90;;;;;;6120818;23;19929;-77
2022/01/07 16:27:03;;;;;;;;;;;1.60;99.90;;;;;;6121215;23;19928;-76
2022/01/07 16:29:32;;;;;;;;;;;1.60;99.90;;;;;;6124724;23;19973;-76
2022/01/07 16:32:01;;;;;;;;;;;1.60;99.90;;;;;;6147463;23;20313;-77
2022/01/07 16:34:28;;;;;;;;;;;1.60;99.90;;;;;;6150853;23;19968;-77
2022/01/07 16:36:55;;;;;;;;;;;1.60;99.90;;;;;;6124225;23;19921;-77
2022/01/07 16:39:23;;;;;;;;;;;1.60;99.90;;;;;;6121803;23;19924;-78
2022/01/07 16:41:51;;;;;;;;;;;1.60;99.90;;;;;;6122500;23;19929;-78
2022/01/07 16:44:18;;;;;;;;;;;1.60;99.90;;;;;;6123254;23;19931;-78
2022/01/07 16:46:45;;;;;;;;;;;1.60;99.90;;;;;;6146623;23;19925;-77
2022/01/07 16:49:16;;;;;;;;;;;1.60;99.90;;;;;;6123417;23;20245;-78
2022/01/07 16:51:43;;;;;;;;;;;1.60;99.90;;;;;;6121051;23;20023;-78
2022/01/07 16:54:10;;;;;;;;;;;1.70;99.90;;;;;;6123920;23;19920;-78
2022/01/07 16:56:37;;;;;;;;;;;1.60;99.90;;;;;;6124370;23;19927;-78
2022/01/07 16:59:04;;;;;;;;;;;1.60;99.90;;;;;;6120587;23;19920;-78
2022/01/07 17:01:31;;;;;;;;;;;1.60;99.90;;;;;;6124533;23;19971;-77
2022/01/07 17:03:58;;;;;;;;;;;1.60;99.90;;;;;;6123283;23;19931;-77
2022/01/07 17:06:27;;;;;;;;;;;1.60;99.90;;;;;;6154100;23;19948;-77
2022/01/07 17:08:54;;;;;;;;;;;1.60;99.90;;;;;;6155854;23;19991;-78
2022/01/07 17:11:20;;;;;;;;;;;1.60;99.90;;;;;;6131927;23;19955;-78
2022/01/07 17:13:48;;;;;;;;;;;1.60;99.90;;;;;;6124182;23;20015;-77
2022/01/07 17:16:15;;;;;;;;;;;1.60;99.90;;;;;;6120933;23;20416;-77
2022/01/07 17:18:42;;;;;;;;;;;1.60;99.90;;;;;;6121664;23;20004;-77
2022/01/07 17:21:09;;;;;;;;;;;1.60;99.90;;;;;;6148908;23;19999;-78
2022/01/07 17:23:38;;;;;;;;;;;1.60;99.90;;;;;;6148028;23;19920;-77
2022/01/07 17:26:05;;;;;;;;;;;1.60;99.90;;;;;;6148280;23;19924;-77
2022/01/07 17:28:32;;;;;;;;;;;1.60;99.90;;;;;;6120953;23;19924;-77
2022/01/07 17:30:59;;;;;;;;;;;1.60;99.90;;;;;;6123416;23;20375;-77
2022/01/07 17:33:28;;;;;;;;;;;1.60;99.90;;;;;;6148251;23;19932;-78
2022/01/07 17:35:55;;;;;;;;;;;1.60;99.90;;;;;;6121742;23;20126;-77
2022/01/07 17:38:24;;;;;;;;;;;1.60;99.90;;;;;;6121324;23;19971;-77
2022/01/07 17:40:52;;;;;;;;;;;1.60;99.90;;;;;;6147905;23;19928;-77
2022/01/07 17:43:20;;;;;;;;;;;1.60;99.90;;;;;;6147890;23;19922;-77
2022/01/07 17:45:47;;;;;;;;;;;1.60;99.90;;;;;;6146669;23;19944;-76
2022/01/07 17:48:14;;;;;;;;;;;1.60;99.90;;;;;;6148042;23;19924;-77
2022/01/07 17:50:45;;;;;;;;;;;1.60;99.90;;;;;;6148493;23;19924;-77
2022/01/07 17:53:13;;;;;;;;;;;1.60;99.90;;;;;;6149013;23;19976;-77
2022/01/07 17:55:40;;;;;;;;;;;1.60;99.90;;;;;;6120625;23;19971;-77
2022/01/07 17:58:08;;;;;;;;;;;1.60;99.90;;;;;;6123438;23;19936;-76
2022/01/07 18:00:35;;;;;;;;;;;1.60;99.90;;;;;;6143076;23;19928;-77
2022/01/07 18:03:04;;;;;;;;;;;1.60;99.90;;;;;;6123665;23;20003;-77
2022/01/07 18:05:31;;;;;;;;;;;1.60;99.90;;;;;;6121319;23;19921;-77
2022/01/07 18:07:58;;;;;;;;;;;1.60;99.90;;;;;;6121369;23;19921;-77
2022/01/07 18:10:25;;;;;;;;;;;1.60;99.90;;;;;;6120644;23;19921;-77
2022/01/07 18:12:53;;;;;;;;;;;1.60;99.90;;;;;;6146520;23;20281;-77
2022/01/07 18:15:22;;;;;;;;;;;1.60;99.90;;;;;;6148550;23;19920;-77
2022/01/07 18:17:49;;;;;;;;;;;1.60;99.90;;;;;;6147310;23;20012;-77
2022/01/07 18:20:16;;;;;;;;;;;1.60;99.90;;;;;;6123246;23;19927;-77
2022/01/07 18:22:46;;;;;;;;;;;1.60;99.90;;;;;;6120909;23;19925;-77
2022/01/07 18:25:13;;;;;;;;;;;1.50;99.90;;;;;;6121894;23;19924;-77
2022/01/07 18:27:40;;;;;;;;;;;1.60;99.90;;;;;;6147360;23;20444;-77
2022/01/07 18:30:08;;;;;;;;;;;1.60;99.90;;;;;;6122525;23;19927;-78
2022/01/07 18:32:36;;;;;;;;;;;1.60;99.90;;;;;;6125143;23;19979;-77
2022/01/07 18:35:04;;;;;;;;;;;1.60;99.90;;;;;;6124024;23;20007;-77
2022/01/07 18:37:31;;;;;;;;;;;1.60;99.90;;;;;;6148991;23;20260;-77
2022/01/07 18:39:58;;;;;;;;;;;1.60;99.90;;;;;;6147043;23;19927;-78
2022/01/07 18:42:25;;;;;;;;;;;1.60;99.90;;;;;;6119767;23;20260;-77
2022/01/07 18:44:52;;;;;;;;;;;1.60;99.90;;;;;;6147158;23;19927;-77
2022/01/07 18:47:19;;;;;;;;;;;1.60;99.90;;;;;;6145938;23;19925;-77
2022/01/07 18:49:47;;;;;;;;;;;1.60;99.90;;;;;;6120690;23;20357;-77
2022/01/07 18:52:14;;;;;;;;;;;1.60;99.90;;;;;;6122830;23;20445;-77
2022/01/07 18:54:41;;;;;;;;;;;1.60;99.90;;;;;;6117833;23;19928;-77
2022/01/07 18:57:08;;;;;;;;;;;1.60;99.90;;;;;;6149534;23;19924;-78
2022/01/07 18:59:35;;;;;;;;;;;1.60;99.90;;;;;;6120921;23;20334;-77
2022/01/07 19:02:02;;;;;;;;;;;1.60;99.90;;;;;;6144652;23;19977;-77
2022/01/07 19:04:30;;;;;;;;;;;1.60;99.90;;;;;;6117172;23;20404;-77
2022/01/07 19:06:59;;;;;;;;;;;1.60;99.90;;;;;;6122378;23;19921;-77
2022/01/07 19:09:26;;;;;;;;;;;1.60;99.90;;;;;;6145931;23;19975;-77
2022/01/07 19:11:53;;;;;;;;;;;1.60;99.90;;;;;;6140110;23;19960;-77
2022/01/07 19:14:20;;;;;;;;;;;1.60;99.90;;;;;;6145164;23;19925;-77
2022/01/07 19:16:47;;;;;;;;;;;1.60;99.90;;;;;;6118846;23;19925;-77
2022/01/07 19:19:14;;;;;;;;;;;1.60;99.90;;;;;;6148168;23;19976;-77
2022/01/07 19:21:41;;;;;;;;;;;1.60;99.90;;;;;;6144228;23;19925;-78
2022/01/07 19:24:10;;;;;;;;;;;1.60;99.90;;;;;;6116484;23;20003;-77
2022/01/07 19:26:37;;;;;;;;;;;1.60;99.90;;;;;;6146367;23;20381;-78
2022/01/07 19:29:04;;;;;;;;;;;1.60;99.90;;;;;;6110470;23;19971;-77
2022/01/07 19:31:31;;;;;;;;;;;1.60;99.90;;;;;;6148802;23;20352;-77
2022/01/07 19:33:58;;;;;;;;;;;1.60;99.90;;;;;;6148905;23;19921;-77
2022/01/07 19:36:25;;;;;;;;;;;1.60;99.90;;;;;;6121919;23;19931;-77
2022/01/07 19:38:52;;;;;;;;;;;1.60;99.90;;;;;;6122515;23;19925;-77
2022/01/07 19:41:20;;;;;;;;;;;1.60;99.90;;;;;;6147687;23;19927;-77
2022/01/07 19:43:47;;;;;;;;;;;1.60;99.90;;;;;;6149338;23;19920;-78
2022/01/07 19:46:16;;;;;;;;;;;1.60;99.90;;;;;;6146997;23;20139;-78
2022/01/07 19:48:43;;;;;;;;;;;1.60;99.90;;;;;;6120648;23;19929;-78
2022/01/07 19:51:10;;;;;;;;;;;1.60;99.90;;;;;;6147794;23;19921;-78
2022/01/07 19:53:37;;;;;;;;;;;1.60;99.90;;;;;;6119234;23;20341;-78
2022/01/07 19:56:04;;;;;;;;;;;1.60;99.90;;;;;;6119102;23;20419;-77
2022/01/07 19:58:33;;;;;;;;;;;1.60;99.90;;;;;;6119262;23;19952;-77
2022/01/07 20:01:01;;;;;;;;;;;1.60;99.90;;;;;;6119277;23;20357;-77
2022/01/07 20:03:30;;;;;;;;;;;1.60;99.90;;;;;;6120350;23;19920;-78
2022/01/07 20:05:57;;;;;;;;;;;1.60;99.90;;;;;;6146765;23;19921;-78
2022/01/07 20:08:24;;;;;;;;;;;1.60;99.90;;;;;;6122719;23;19920;-77
2022/01/07 20:10:51;;;;;;;;;;;1.60;99.90;;;;;;6121842;23;19925;-77
2022/01/07 20:13:21;;;;;;;;;;;1.60;99.90;;;;;;6122189;23;19931;-76
2022/01/07 20:15:49;;;;;;;;;;;1.60;99.90;;;;;;6123533;23;20307;-77
2022/01/07 20:18:16;;;;;;;;;;;1.60;99.90;;;;;;6149347;23;19924;-77
2022/01/07 20:20:44;;;;;;;;;;;1.60;99.90;;;;;;6120709;23;19948;-78
2022/01/07 20:23:11;;;;;;;;;;;1.60;99.90;;;;;;6122736;23;20358;-76
2022/01/07 20:25:38;;;;;;;;;;;1.60;99.90;;;;;;6123534;23;19956;-77
2022/01/07 20:28:05;;;;;;;;;;;1.60;99.90;;;;;;6120533;23;19971;-77
2022/01/07 20:30:32;;;;;;;;;;;1.60;99.90;;;;;;6115768;23;19956;-77
2022/01/07 20:33:00;;;;;;;;;;;1.60;99.90;;;;;;6142082;23;19955;-77
2022/01/07 20:35:28;;;;;;;;;;;1.60;99.90;;;;;;6116290;23;19924;-77